sensor_id;sensor_type;location;lat;lon;timestamp;P1;durP1;ratioP1;P2;durP2;ratioP2
10246;SDS011;5168;47.854;7.944;2022-09-16T00:00:58;8.37;;;6.17;;
10246;SDS011;5168;47.854;7.944;2022-09-16T00:03:23;7.73;;;5.83;;
10246;SDS011;5168;47.854;7.944;2022-09-16T00:05:50;8.10;;;5.77;;
10246;SDS011;5168;47.854;7.944;2022-09-16T00:08:17;6.93;;;5.43;;
10246;SDS011;5168;47.854;7.944;2022-09-16T00:10:43;8.40;;;5.77;;
10246;SDS011;5168;47.854;7.944;2022-09-16T00:13:09;7.33;;;5.10;;
10246;SDS011;5168;47.854;7.944;2022-09-16T00:15:36;5.03;;;4.53;;
10246;SDS011;5168;47.854;7.944;2022-09-16T00:18:02;5.30;;;4.80;;
10246;SDS011;5168;47.854;7.944;2022-09-16T00:20:28;5.20;;;4.70;;
10246;SDS011;5168;47.854;7.944;2022-09-16T00:22:54;5.43;;;4.93;;
10246;SDS011;5168;47.854;7.944;2022-09-16T00:25:19;7.97;;;5.40;;
10246;SDS011;5168;47.854;7.944;2022-09-16T00:27:48;5.93;;;5.33;;
10246;SDS011;5168;47.854;7.944;2022-09-16T00:30:14;6.17;;;4.70;;
10246;SDS011;5168;47.854;7.944;2022-09-16T00:32:39;5.90;;;4.40;;
10246;SDS011;5168;47.854;7.944;2022-09-16T00:35:05;5.37;;;4.87;;
10246;SDS011;5168;47.854;7.944;2022-09-16T00:37:32;4.70;;;4.20;;
10246;SDS011;5168;47.854;7.944;2022-09-16T00:39:58;6.40;;;4.30;;
10246;SDS011;5168;47.854;7.944;2022-09-16T00:42:23;5.07;;;4.57;;
10246;SDS011;5168;47.854;7.944;2022-09-16T00:44:51;5.77;;;5.23;;
10246;SDS011;5168;47.854;7.944;2022-09-16T00:47:31;4.27;;;3.87;;
10246;SDS011;5168;47.854;7.944;2022-09-16T00:50:07;5.87;;;5.27;;
10246;SDS011;5168;47.854;7.944;2022-09-16T00:52:37;8.77;;;5.37;;
10246;SDS011;5168;47.854;7.944;2022-09-16T00:55:06;5.73;;;5.13;;
10246;SDS011;5168;47.854;7.944;2022-09-16T00:57:33;7.80;;;5.83;;
10246;SDS011;5168;47.854;7.944;2022-09-16T01:00:00;6.70;;;4.93;;
10246;SDS011;5168;47.854;7.944;2022-09-16T01:02:28;5.50;;;5.00;;
10246;SDS011;5168;47.854;7.944;2022-09-16T01:07:21;7.80;;;5.30;;
10246;SDS011;5168;47.854;7.944;2022-09-16T01:10:03;6.93;;;4.67;;
10246;SDS011;5168;47.854;7.944;2022-09-16T01:12:28;6.47;;;4.00;;
10246;SDS011;5168;47.854;7.944;2022-09-16T01:14:56;4.53;;;4.13;;
10246;SDS011;5168;47.854;7.944;2022-09-16T01:17:27;5.70;;;3.70;;
10246;SDS011;5168;47.854;7.944;2022-09-16T01:33:05;5.93;;;4.53;;
10246;SDS011;5168;47.854;7.944;2022-09-16T01:43:48;4.60;;;4.20;;
10246;SDS011;5168;47.854;7.944;2022-09-16T01:46:39;5.70;;;4.33;;
10246;SDS011;5168;47.854;7.944;2022-09-16T01:49:46;5.20;;;4.30;;
10246;SDS011;5168;47.854;7.944;2022-09-16T01:52:42;3.87;;;3.57;;
10246;SDS011;5168;47.854;7.944;2022-09-16T01:55:44;5.17;;;4.07;;
10246;SDS011;5168;47.854;7.944;2022-09-16T01:58:16;4.47;;;4.07;;
10246;SDS011;5168;47.854;7.944;2022-09-16T02:00:50;5.67;;;4.30;;
10246;SDS011;5168;47.854;7.944;2022-09-16T02:03:23;6.10;;;4.20;;
10246;SDS011;5168;47.854;7.944;2022-09-16T02:05:54;5.20;;;4.67;;
10246;SDS011;5168;47.854;7.944;2022-09-16T02:08:27;8.57;;;4.43;;
10246;SDS011;5168;47.854;7.944;2022-09-16T02:10:59;4.60;;;4.20;;
10246;SDS011;5168;47.854;7.944;2022-09-16T02:13:44;4.47;;;4.07;;
10246;SDS011;5168;47.854;7.944;2022-09-16T02:16:15;5.43;;;4.27;;
10246;SDS011;5168;47.854;7.944;2022-09-16T02:18:51;4.40;;;3.83;;
10246;SDS011;5168;47.854;7.944;2022-09-16T02:21:19;4.23;;;3.83;;
10246;SDS011;5168;47.854;7.944;2022-09-16T02:23:50;4.30;;;3.70;;
10246;SDS011;5168;47.854;7.944;2022-09-16T02:26:20;4.93;;;4.27;;
10246;SDS011;5168;47.854;7.944;2022-09-16T02:28:49;4.30;;;3.90;;
10246;SDS011;5168;47.854;7.944;2022-09-16T02:31:18;3.53;;;3.23;;
10246;SDS011;5168;47.854;7.944;2022-09-16T02:33:52;4.00;;;3.70;;
10246;SDS011;5168;47.854;7.944;2022-09-16T02:36:21;4.93;;;4.43;;
10246;SDS011;5168;47.854;7.944;2022-09-16T02:38:56;5.57;;;4.43;;
10246;SDS011;5168;47.854;7.944;2022-09-16T02:41:25;5.67;;;4.47;;
10246;SDS011;5168;47.854;7.944;2022-09-16T02:43:51;8.73;;;4.40;;
10246;SDS011;5168;47.854;7.944;2022-09-16T02:46:39;6.70;;;4.57;;
10246;SDS011;5168;47.854;7.944;2022-09-16T02:54:35;6.73;;;4.93;;
10246;SDS011;5168;47.854;7.944;2022-09-16T02:57:09;5.47;;;4.77;;
10246;SDS011;5168;47.854;7.944;2022-09-16T02:59:36;6.77;;;5.23;;
10246;SDS011;5168;47.854;7.944;2022-09-16T03:02:02;5.60;;;5.10;;
10246;SDS011;5168;47.854;7.944;2022-09-16T03:04:28;4.83;;;4.43;;
10246;SDS011;5168;47.854;7.944;2022-09-16T03:06:54;8.63;;;5.30;;
10246;SDS011;5168;47.854;7.944;2022-09-16T03:09:20;4.87;;;4.13;;
10246;SDS011;5168;47.854;7.944;2022-09-16T03:12:06;5.30;;;4.17;;
10246;SDS011;5168;47.854;7.944;2022-09-16T03:14:39;9.60;;;5.73;;
10246;SDS011;5168;47.854;7.944;2022-09-16T03:17:38;6.57;;;5.20;;
10246;SDS011;5168;47.854;7.944;2022-09-16T03:20:39;6.03;;;5.17;;
10246;SDS011;5168;47.854;7.944;2022-09-16T03:23:32;5.80;;;5.20;;
10246;SDS011;5168;47.854;7.944;2022-09-16T03:28:51;5.27;;;4.17;;
10246;SDS011;5168;47.854;7.944;2022-09-16T03:34:03;8.10;;;5.03;;
10246;SDS011;5168;47.854;7.944;2022-09-16T03:36:35;6.00;;;5.00;;
10246;SDS011;5168;47.854;7.944;2022-09-16T03:39:04;6.53;;;5.50;;
10246;SDS011;5168;47.854;7.944;2022-09-16T03:41:30;5.43;;;4.93;;
10246;SDS011;5168;47.854;7.944;2022-09-16T03:43:58;6.47;;;5.50;;
10246;SDS011;5168;47.854;7.944;2022-09-16T03:46:24;6.00;;;5.33;;
10246;SDS011;5168;47.854;7.944;2022-09-16T03:48:52;5.07;;;4.57;;
10246;SDS011;5168;47.854;7.944;2022-09-16T03:51:19;4.60;;;4.20;;
10246;SDS011;5168;47.854;7.944;2022-09-16T03:53:44;5.07;;;4.53;;
10246;SDS011;5168;47.854;7.944;2022-09-16T03:56:10;6.60;;;4.63;;
10246;SDS011;5168;47.854;7.944;2022-09-16T03:58:36;4.63;;;4.23;;
10246;SDS011;5168;47.854;7.944;2022-09-16T04:01:02;5.77;;;4.43;;
10246;SDS011;5168;47.854;7.944;2022-09-16T04:03:28;4.77;;;3.83;;
10246;SDS011;5168;47.854;7.944;2022-09-16T04:05:55;5.63;;;3.83;;
10246;SDS011;5168;47.854;7.944;2022-09-16T04:08:21;5.00;;;4.23;;
10246;SDS011;5168;47.854;7.944;2022-09-16T04:10:54;6.70;;;5.23;;
10246;SDS011;5168;47.854;7.944;2022-09-16T04:13:20;7.47;;;5.30;;
10246;SDS011;5168;47.854;7.944;2022-09-16T04:15:47;6.90;;;5.40;;
10246;SDS011;5168;47.854;7.944;2022-09-16T04:18:13;4.83;;;4.30;;
10246;SDS011;5168;47.854;7.944;2022-09-16T04:20:38;5.43;;;4.93;;
10246;SDS011;5168;47.854;7.944;2022-09-16T04:23:04;4.30;;;3.90;;
10246;SDS011;5168;47.854;7.944;2022-09-16T04:25:30;10.30;;;5.47;;
10246;SDS011;5168;47.854;7.944;2022-09-16T04:27:56;8.43;;;4.47;;
10246;SDS011;5168;47.854;7.944;2022-09-16T04:30:22;5.87;;;4.83;;
10246;SDS011;5168;47.854;7.944;2022-09-16T04:32:51;5.33;;;4.83;;
10246;SDS011;5168;47.854;7.944;2022-09-16T04:35:18;16.23;;;5.30;;
10246;SDS011;5168;47.854;7.944;2022-09-16T04:37:43;4.23;;;3.83;;
10246;SDS011;5168;47.854;7.944;2022-09-16T04:40:09;5.00;;;4.13;;
10246;SDS011;5168;47.854;7.944;2022-09-16T04:42:34;7.63;;;5.27;;
10246;SDS011;5168;47.854;7.944;2022-09-16T04:45:00;7.30;;;4.97;;
10246;SDS011;5168;47.854;7.944;2022-09-16T04:47:26;5.07;;;4.63;;
10246;SDS011;5168;47.854;7.944;2022-09-16T04:49:53;5.40;;;4.50;;
10246;SDS011;5168;47.854;7.944;2022-09-16T04:52:19;6.83;;;5.70;;
10246;SDS011;5168;47.854;7.944;2022-09-16T04:54:45;6.70;;;5.00;;
10246;SDS011;5168;47.854;7.944;2022-09-16T04:57:10;5.87;;;5.07;;
10246;SDS011;5168;47.854;7.944;2022-09-16T04:59:36;11.70;;;5.97;;
10246;SDS011;5168;47.854;7.944;2022-09-16T05:02:02;6.70;;;5.97;;
10246;SDS011;5168;47.854;7.944;2022-09-16T05:04:28;8.00;;;5.30;;
10246;SDS011;5168;47.854;7.944;2022-09-16T05:06:54;10.80;;;6.60;;
10246;SDS011;5168;47.854;7.944;2022-09-16T05:09:20;8.03;;;6.10;;
10246;SDS011;5168;47.854;7.944;2022-09-16T05:11:46;6.67;;;5.40;;
10246;SDS011;5168;47.854;7.944;2022-09-16T05:14:14;6.50;;;5.90;;
10246;SDS011;5168;47.854;7.944;2022-09-16T05:16:41;8.47;;;5.20;;
10246;SDS011;5168;47.854;7.944;2022-09-16T05:19:09;6.83;;;5.73;;
10246;SDS011;5168;47.854;7.944;2022-09-16T05:21:36;6.00;;;5.27;;
10246;SDS011;5168;47.854;7.944;2022-09-16T05:24:03;9.13;;;5.57;;
10246;SDS011;5168;47.854;7.944;2022-09-16T05:26:31;7.03;;;5.17;;
10246;SDS011;5168;47.854;7.944;2022-09-16T05:28:59;6.20;;;5.00;;
10246;SDS011;5168;47.854;7.944;2022-09-16T05:31:27;5.90;;;4.80;;
10246;SDS011;5168;47.854;7.944;2022-09-16T05:33:58;7.33;;;5.17;;
10246;SDS011;5168;47.854;7.944;2022-09-16T05:36:26;9.23;;;5.20;;
10246;SDS011;5168;47.854;7.944;2022-09-16T05:38:53;6.53;;;4.87;;
10246;SDS011;5168;47.854;7.944;2022-09-16T05:41:20;8.57;;;5.23;;
10246;SDS011;5168;47.854;7.944;2022-09-16T05:43:46;7.20;;;5.20;;
10246;SDS011;5168;47.854;7.944;2022-09-16T05:46:16;7.90;;;5.57;;
10246;SDS011;5168;47.854;7.944;2022-09-16T05:48:43;5.73;;;4.50;;
10246;SDS011;5168;47.854;7.944;2022-09-16T05:51:09;5.97;;;5.37;;
10246;SDS011;5168;47.854;7.944;2022-09-16T05:53:37;5.97;;;5.10;;
10246;SDS011;5168;47.854;7.944;2022-09-16T05:56:04;5.20;;;4.43;;
10246;SDS011;5168;47.854;7.944;2022-09-16T05:58:32;6.33;;;5.27;;
10246;SDS011;5168;47.854;7.944;2022-09-16T06:03:25;5.67;;;5.17;;
10246;SDS011;5168;47.854;7.944;2022-09-16T06:05:51;8.23;;;5.83;;
10246;SDS011;5168;47.854;7.944;2022-09-16T06:08:22;6.23;;;5.63;;
10246;SDS011;5168;47.854;7.944;2022-09-16T06:10:48;8.57;;;5.87;;
10246;SDS011;5168;47.854;7.944;2022-09-16T06:13:14;8.03;;;5.60;;
10246;SDS011;5168;47.854;7.944;2022-09-16T06:15:47;11.37;;;6.67;;
10246;SDS011;5168;47.854;7.944;2022-09-16T06:18:18;6.83;;;6.10;;
10246;SDS011;5168;47.854;7.944;2022-09-16T06:20:44;9.73;;;7.57;;
10246;SDS011;5168;47.854;7.944;2022-09-16T06:23:10;8.13;;;6.57;;
10246;SDS011;5168;47.854;7.944;2022-09-16T06:25:35;11.10;;;7.90;;
10246;SDS011;5168;47.854;7.944;2022-09-16T06:28:02;10.67;;;7.30;;
10246;SDS011;5168;47.854;7.944;2022-09-16T06:30:28;7.10;;;6.37;;
10246;SDS011;5168;47.854;7.944;2022-09-16T06:32:53;7.13;;;6.30;;
10246;SDS011;5168;47.854;7.944;2022-09-16T06:35:19;7.60;;;6.77;;
10246;SDS011;5168;47.854;7.944;2022-09-16T06:37:45;9.00;;;6.40;;
10246;SDS011;5168;47.854;7.944;2022-09-16T06:40:11;10.37;;;6.60;;
10246;SDS011;5168;47.854;7.944;2022-09-16T06:42:37;6.13;;;5.37;;
10246;SDS011;5168;47.854;7.944;2022-09-16T06:45:03;5.70;;;5.00;;
10246;SDS011;5168;47.854;7.944;2022-09-16T06:47:29;7.13;;;5.90;;
10246;SDS011;5168;47.854;7.944;2022-09-16T06:49:58;7.00;;;5.73;;
10246;SDS011;5168;47.854;7.944;2022-09-16T06:52:24;7.23;;;5.93;;
10246;SDS011;5168;47.854;7.944;2022-09-16T06:54:51;9.37;;;6.20;;
10246;SDS011;5168;47.854;7.944;2022-09-16T06:57:17;7.60;;;5.77;;
10246;SDS011;5168;47.854;7.944;2022-09-16T06:59:44;6.93;;;6.27;;
10246;SDS011;5168;47.854;7.944;2022-09-16T07:02:10;6.90;;;6.20;;
10246;SDS011;5168;47.854;7.944;2022-09-16T07:04:36;7.83;;;6.57;;
10246;SDS011;5168;47.854;7.944;2022-09-16T07:07:02;9.60;;;6.77;;
10246;SDS011;5168;47.854;7.944;2022-09-16T07:09:28;7.40;;;6.63;;
10246;SDS011;5168;47.854;7.944;2022-09-16T07:11:54;6.47;;;5.40;;
10246;SDS011;5168;47.854;7.944;2022-09-16T07:14:21;4.63;;;4.10;;
10246;SDS011;5168;47.854;7.944;2022-09-16T07:16:46;9.90;;;6.00;;
10246;SDS011;5168;47.854;7.944;2022-09-16T07:19:12;7.47;;;5.73;;
10246;SDS011;5168;47.854;7.944;2022-09-16T07:21:38;6.70;;;5.80;;
10246;SDS011;5168;47.854;7.944;2022-09-16T07:24:05;5.20;;;4.70;;
10246;SDS011;5168;47.854;7.944;2022-09-16T07:26:32;5.17;;;4.67;;
10246;SDS011;5168;47.854;7.944;2022-09-16T07:28:59;5.93;;;5.30;;
10246;SDS011;5168;47.854;7.944;2022-09-16T07:31:27;6.70;;;5.70;;
10246;SDS011;5168;47.854;7.944;2022-09-16T07:33:55;7.27;;;5.43;;
10246;SDS011;5168;47.854;7.944;2022-09-16T07:36:23;5.93;;;5.33;;
10246;SDS011;5168;47.854;7.944;2022-09-16T07:38:51;9.30;;;6.10;;
10246;SDS011;5168;47.854;7.944;2022-09-16T07:41:19;5.57;;;5.07;;
10246;SDS011;5168;47.854;7.944;2022-09-16T07:43:46;6.73;;;5.60;;
10246;SDS011;5168;47.854;7.944;2022-09-16T07:46:13;6.00;;;5.07;;
10246;SDS011;5168;47.854;7.944;2022-09-16T07:48:43;11.47;;;5.33;;
10246;SDS011;5168;47.854;7.944;2022-09-16T07:51:10;5.90;;;5.40;;
10246;SDS011;5168;47.854;7.944;2022-09-16T07:53:38;7.43;;;5.93;;
10246;SDS011;5168;47.854;7.944;2022-09-16T07:56:06;8.20;;;5.77;;
10246;SDS011;5168;47.854;7.944;2022-09-16T07:58:33;7.43;;;5.80;;
10246;SDS011;5168;47.854;7.944;2022-09-16T08:00:59;5.80;;;5.13;;
10246;SDS011;5168;47.854;7.944;2022-09-16T08:03:25;5.67;;;5.07;;
10246;SDS011;5168;47.854;7.944;2022-09-16T08:05:51;6.57;;;5.93;;
10246;SDS011;5168;47.854;7.944;2022-09-16T08:08:17;6.57;;;5.67;;
10246;SDS011;5168;47.854;7.944;2022-09-16T08:10:43;8.10;;;5.70;;
10246;SDS011;5168;47.854;7.944;2022-09-16T08:13:18;5.20;;;4.70;;
10246;SDS011;5168;47.854;7.944;2022-09-16T08:15:44;7.10;;;6.23;;
10246;SDS011;5168;47.854;7.944;2022-09-16T08:18:09;5.70;;;4.87;;
10246;SDS011;5168;47.854;7.944;2022-09-16T08:20:35;6.73;;;6.00;;
10246;SDS011;5168;47.854;7.944;2022-09-16T08:23:01;7.00;;;6.27;;
10246;SDS011;5168;47.854;7.944;2022-09-16T08:25:26;10.07;;;6.73;;
10246;SDS011;5168;47.854;7.944;2022-09-16T08:27:52;8.53;;;7.53;;
10246;SDS011;5168;47.854;7.944;2022-09-16T08:30:18;7.30;;;6.60;;
10246;SDS011;5168;47.854;7.944;2022-09-16T08:32:44;8.63;;;6.27;;
10246;SDS011;5168;47.854;7.944;2022-09-16T08:35:09;7.60;;;6.00;;
10246;SDS011;5168;47.854;7.944;2022-09-16T08:37:35;7.67;;;5.83;;
10246;SDS011;5168;47.854;7.944;2022-09-16T08:40:02;7.33;;;5.83;;
10246;SDS011;5168;47.854;7.944;2022-09-16T08:42:30;7.07;;;6.37;;
10246;SDS011;5168;47.854;7.944;2022-09-16T08:45:27;9.33;;;6.57;;
10246;SDS011;5168;47.854;7.944;2022-09-16T08:51:14;6.03;;;5.43;;
10246;SDS011;5168;47.854;7.944;2022-09-16T08:53:44;5.63;;;5.03;;
10246;SDS011;5168;47.854;7.944;2022-09-16T08:56:17;7.93;;;5.20;;
10246;SDS011;5168;47.854;7.944;2022-09-16T08:58:46;3.67;;;3.30;;
10246;SDS011;5168;47.854;7.944;2022-09-16T09:01:34;4.33;;;3.40;;
10246;SDS011;5168;47.854;7.944;2022-09-16T09:04:13;3.63;;;3.10;;
10246;SDS011;5168;47.854;7.944;2022-09-16T09:06:49;5.90;;;4.13;;
10246;SDS011;5168;47.854;7.944;2022-09-16T09:12:13;5.60;;;5.10;;
10246;SDS011;5168;47.854;7.944;2022-09-16T09:14:46;6.17;;;5.43;;
10246;SDS011;5168;47.854;7.944;2022-09-16T09:20:21;6.43;;;5.83;;
10246;SDS011;5168;47.854;7.944;2022-09-16T09:28:34;4.33;;;3.97;;
10246;SDS011;5168;47.854;7.944;2022-09-16T09:33:55;4.17;;;3.87;;
10246;SDS011;5168;47.854;7.944;2022-09-16T09:39:28;4.10;;;3.70;;
10246;SDS011;5168;47.854;7.944;2022-09-16T09:42:28;3.70;;;3.10;;
10246;SDS011;5168;47.854;7.944;2022-09-16T09:45:03;3.30;;;3.00;;
10246;SDS011;5168;47.854;7.944;2022-09-16T09:47:40;3.77;;;3.47;;
10246;SDS011;5168;47.854;7.944;2022-09-16T09:50:16;4.20;;;3.80;;
10246;SDS011;5168;47.854;7.944;2022-09-16T09:55:39;5.00;;;4.50;;
10246;SDS011;5168;47.854;7.944;2022-09-16T09:58:20;3.77;;;3.47;;
10246;SDS011;5168;47.854;7.944;2022-09-16T10:00:52;3.33;;;3.03;;
10246;SDS011;5168;47.854;7.944;2022-09-16T10:03:20;3.20;;;3.00;;
10246;SDS011;5168;47.854;7.944;2022-09-16T10:05:46;3.93;;;3.63;;
10246;SDS011;5168;47.854;7.944;2022-09-16T10:08:23;4.37;;;3.97;;
10246;SDS011;5168;47.854;7.944;2022-09-16T10:10:53;2.90;;;2.70;;
10246;SDS011;5168;47.854;7.944;2022-09-16T10:13:24;4.37;;;3.40;;
10246;SDS011;5168;47.854;7.944;2022-09-16T10:16:06;4.00;;;3.63;;
10246;SDS011;5168;47.854;7.944;2022-09-16T10:18:44;3.50;;;3.20;;
10246;SDS011;5168;47.854;7.944;2022-09-16T10:21:37;3.50;;;3.20;;
10246;SDS011;5168;47.854;7.944;2022-09-16T10:26:54;6.07;;;3.97;;
10246;SDS011;5168;47.854;7.944;2022-09-16T10:29:20;5.07;;;3.93;;
10246;SDS011;5168;47.854;7.944;2022-09-16T10:31:46;5.30;;;4.03;;
10246;SDS011;5168;47.854;7.944;2022-09-16T10:34:25;3.83;;;3.40;;
10246;SDS011;5168;47.854;7.944;2022-09-16T10:37:02;3.70;;;3.30;;
10246;SDS011;5168;47.854;7.944;2022-09-16T10:39:39;4.70;;;4.20;;
10246;SDS011;5168;47.854;7.944;2022-09-16T10:42:19;4.37;;;3.73;;
10246;SDS011;5168;47.854;7.944;2022-09-16T10:44:46;4.60;;;4.20;;
10246;SDS011;5168;47.854;7.944;2022-09-16T10:47:27;3.73;;;3.37;;
10246;SDS011;5168;47.854;7.944;2022-09-16T10:50:05;5.03;;;3.50;;
10246;SDS011;5168;47.854;7.944;2022-09-16T10:52:39;4.77;;;4.13;;
10246;SDS011;5168;47.854;7.944;2022-09-16T10:58:14;4.03;;;3.47;;
10246;SDS011;5168;47.854;7.944;2022-09-16T11:00:46;3.90;;;3.50;;
10246;SDS011;5168;47.854;7.944;2022-09-16T11:14:32;4.63;;;4.10;;
10246;SDS011;5168;47.854;7.944;2022-09-16T11:17:16;6.03;;;4.40;;
10246;SDS011;5168;47.854;7.944;2022-09-16T11:25:15;5.73;;;4.40;;
10246;SDS011;5168;47.854;7.944;2022-09-16T11:28:17;4.43;;;4.03;;
10246;SDS011;5168;47.854;7.944;2022-09-16T11:55:59;5.90;;;3.80;;
10246;SDS011;5168;47.854;7.944;2022-09-16T12:00:55;4.67;;;4.27;;
10246;SDS011;5168;47.854;7.944;2022-09-16T12:05:57;7.20;;;4.50;;
10246;SDS011;5168;47.854;7.944;2022-09-16T12:08:30;4.30;;;3.90;;
10246;SDS011;5168;47.854;7.944;2022-09-16T12:14:14;4.73;;;3.10;;
10246;SDS011;5168;47.854;7.944;2022-09-16T12:19:32;5.03;;;3.70;;
10246;SDS011;5168;47.854;7.944;2022-09-16T12:22:12;5.20;;;4.27;;
10246;SDS011;5168;47.854;7.944;2022-09-16T12:27:32;4.57;;;4.10;;
10246;SDS011;5168;47.854;7.944;2022-09-16T12:30:11;6.00;;;3.90;;
10246;SDS011;5168;47.854;7.944;2022-09-16T12:32:41;4.17;;;3.33;;
10246;SDS011;5168;47.854;7.944;2022-09-16T12:36:13;5.13;;;3.83;;
10246;SDS011;5168;47.854;7.944;2022-09-16T12:38:23;3.50;;;3.20;;
10246;SDS011;5168;47.854;7.944;2022-09-16T12:41:03;5.40;;;3.63;;
10246;SDS011;5168;47.854;7.944;2022-09-16T12:57:30;3.70;;;3.40;;
10246;SDS011;5168;47.854;7.944;2022-09-16T13:00:12;4.60;;;3.30;;
10246;SDS011;5168;47.854;7.944;2022-09-16T13:02:52;4.07;;;3.23;;
10246;SDS011;5168;47.854;7.944;2022-09-16T13:05:26;4.10;;;3.60;;
10246;SDS011;5168;47.854;7.944;2022-09-16T13:07:59;4.10;;;3.67;;
10246;SDS011;5168;47.854;7.944;2022-09-16T13:10:30;3.90;;;3.23;;
10246;SDS011;5168;47.854;7.944;2022-09-16T13:13:01;4.03;;;3.50;;
10246;SDS011;5168;47.854;7.944;2022-09-16T13:15:33;4.47;;;3.10;;
10246;SDS011;5168;47.854;7.944;2022-09-16T13:20:41;3.10;;;2.80;;
10246;SDS011;5168;47.854;7.944;2022-09-16T13:23:18;3.87;;;3.00;;
10246;SDS011;5168;47.854;7.944;2022-09-16T13:25:49;3.23;;;2.93;;
10246;SDS011;5168;47.854;7.944;2022-09-16T13:28:38;3.60;;;3.30;;
10246;SDS011;5168;47.854;7.944;2022-09-16T13:33:39;3.70;;;3.40;;
10246;SDS011;5168;47.854;7.944;2022-09-16T13:38:48;4.60;;;3.43;;
10246;SDS011;5168;47.854;7.944;2022-09-16T13:43:58;8.77;;;4.00;;
10246;SDS011;5168;47.854;7.944;2022-09-16T13:46:45;4.30;;;3.70;;
10246;SDS011;5168;47.854;7.944;2022-09-16T13:49:15;3.80;;;3.37;;
10246;SDS011;5168;47.854;7.944;2022-09-16T13:51:43;4.37;;;3.20;;
10246;SDS011;5168;47.854;7.944;2022-09-16T13:54:26;5.60;;;3.57;;
10246;SDS011;5168;47.854;7.944;2022-09-16T14:02:41;4.30;;;3.47;;
10246;SDS011;5168;47.854;7.944;2022-09-16T14:05:24;3.37;;;2.90;;
10246;SDS011;5168;47.854;7.944;2022-09-16T14:10:53;8.10;;;3.33;;
10246;SDS011;5168;47.854;7.944;2022-09-16T14:14:03;3.33;;;3.03;;
10246;SDS011;5168;47.854;7.944;2022-09-16T14:16:34;3.77;;;2.93;;
10246;SDS011;5168;47.854;7.944;2022-09-16T14:21:31;3.70;;;3.40;;
10246;SDS011;5168;47.854;7.944;2022-09-16T14:24:07;4.70;;;3.00;;
10246;SDS011;5168;47.854;7.944;2022-09-16T14:26:38;3.20;;;2.90;;
10246;SDS011;5168;47.854;7.944;2022-09-16T14:29:17;3.40;;;2.97;;
10246;SDS011;5168;47.854;7.944;2022-09-16T14:31:43;3.43;;;3.13;;
10246;SDS011;5168;47.854;7.944;2022-09-16T14:34:09;3.20;;;2.90;;
10246;SDS011;5168;47.854;7.944;2022-09-16T14:36:54;3.07;;;2.87;;
10246;SDS011;5168;47.854;7.944;2022-09-16T14:39:21;3.87;;;3.57;;
10246;SDS011;5168;47.854;7.944;2022-09-16T14:49:11;2.90;;;2.70;;
10246;SDS011;5168;47.854;7.944;2022-09-16T14:51:38;2.90;;;2.70;;
10246;SDS011;5168;47.854;7.944;2022-09-16T14:54:16;2.63;;;2.43;;
10246;SDS011;5168;47.854;7.944;2022-09-16T14:56:53;3.60;;;3.30;;
10246;SDS011;5168;47.854;7.944;2022-09-16T14:59:20;3.73;;;3.40;;
10246;SDS011;5168;47.854;7.944;2022-09-16T15:01:50;5.40;;;3.77;;
10246;SDS011;5168;47.854;7.944;2022-09-16T15:04:19;3.97;;;3.37;;
10246;SDS011;5168;47.854;7.944;2022-09-16T15:06:50;3.47;;;2.90;;
10246;SDS011;5168;47.854;7.944;2022-09-16T15:09:27;3.10;;;2.87;;
10246;SDS011;5168;47.854;7.944;2022-09-16T15:12:45;3.57;;;3.13;;
10246;SDS011;5168;47.854;7.944;2022-09-16T15:15:16;3.23;;;2.80;;
10246;SDS011;5168;47.854;7.944;2022-09-16T15:17:50;3.10;;;2.80;;
10246;SDS011;5168;47.854;7.944;2022-09-16T15:20:23;2.80;;;2.60;;
10246;SDS011;5168;47.854;7.944;2022-09-16T15:22:51;3.10;;;2.90;;
10246;SDS011;5168;47.854;7.944;2022-09-16T15:25:26;2.90;;;2.70;;
10246;SDS011;5168;47.854;7.944;2022-09-16T15:28:14;5.30;;;3.20;;
10246;SDS011;5168;47.854;7.944;2022-09-16T15:30:48;8.13;;;3.60;;
10246;SDS011;5168;47.854;7.944;2022-09-16T15:33:38;3.10;;;2.90;;
10246;SDS011;5168;47.854;7.944;2022-09-16T15:36:05;3.37;;;3.07;;
10246;SDS011;5168;47.854;7.944;2022-09-16T15:38:32;4.90;;;3.30;;
10246;SDS011;5168;47.854;7.944;2022-09-16T15:41:02;3.90;;;3.03;;
10246;SDS011;5168;47.854;7.944;2022-09-16T15:43:32;4.00;;;3.07;;
10246;SDS011;5168;47.854;7.944;2022-09-16T15:46:04;4.97;;;2.50;;
10246;SDS011;5168;47.854;7.944;2022-09-16T15:48:41;2.87;;;2.57;;
10246;SDS011;5168;47.854;7.944;2022-09-16T15:51:19;5.53;;;3.03;;
10246;SDS011;5168;47.854;7.944;2022-09-16T15:54:07;4.90;;;3.20;;
10246;SDS011;5168;47.854;7.944;2022-09-16T15:57:20;3.77;;;2.87;;
10246;SDS011;5168;47.854;7.944;2022-09-16T15:59:41;3.10;;;2.80;;
10246;SDS011;5168;47.854;7.944;2022-09-16T16:02:32;4.97;;;3.37;;
10246;SDS011;5168;47.854;7.944;2022-09-16T16:05:17;5.43;;;2.90;;
10246;SDS011;5168;47.854;7.944;2022-09-16T16:07:56;4.17;;;3.10;;
10246;SDS011;5168;47.854;7.944;2022-09-16T16:10:25;6.00;;;3.17;;
10246;SDS011;5168;47.854;7.944;2022-09-16T16:12:52;6.27;;;3.30;;
10246;SDS011;5168;47.854;7.944;2022-09-16T16:15:20;3.13;;;2.83;;
10246;SDS011;5168;47.854;7.944;2022-09-16T16:17:52;3.70;;;2.90;;
10246;SDS011;5168;47.854;7.944;2022-09-16T16:20:19;3.67;;;2.90;;
10246;SDS011;5168;47.854;7.944;2022-09-16T16:22:45;3.67;;;2.77;;
10246;SDS011;5168;47.854;7.944;2022-09-16T16:25:11;5.93;;;3.17;;
10246;SDS011;5168;47.854;7.944;2022-09-16T16:27:37;3.27;;;2.60;;
10246;SDS011;5168;47.854;7.944;2022-09-16T16:30:03;3.97;;;3.20;;
10246;SDS011;5168;47.854;7.944;2022-09-16T16:32:30;4.57;;;3.20;;
10246;SDS011;5168;47.854;7.944;2022-09-16T16:34:56;2.90;;;2.47;;
10246;SDS011;5168;47.854;7.944;2022-09-16T16:37:23;3.10;;;2.47;;
10246;SDS011;5168;47.854;7.944;2022-09-16T16:39:49;2.93;;;2.40;;
10246;SDS011;5168;47.854;7.944;2022-09-16T16:42:15;2.40;;;2.20;;
10246;SDS011;5168;47.854;7.944;2022-09-16T16:44:41;3.50;;;2.37;;
10246;SDS011;5168;47.854;7.944;2022-09-16T16:47:08;5.53;;;3.33;;
10246;SDS011;5168;47.854;7.944;2022-09-16T16:49:34;3.40;;;2.77;;
10246;SDS011;5168;47.854;7.944;2022-09-16T16:52:00;3.50;;;2.70;;
10246;SDS011;5168;47.854;7.944;2022-09-16T16:54:27;2.57;;;2.37;;
10246;SDS011;5168;47.854;7.944;2022-09-16T16:56:54;2.63;;;2.43;;
10246;SDS011;5168;47.854;7.944;2022-09-16T16:59:20;3.13;;;2.40;;
10246;SDS011;5168;47.854;7.944;2022-09-16T17:01:46;6.67;;;2.93;;
10246;SDS011;5168;47.854;7.944;2022-09-16T17:04:15;3.87;;;2.63;;
10246;SDS011;5168;47.854;7.944;2022-09-16T17:06:41;3.33;;;2.43;;
10246;SDS011;5168;47.854;7.944;2022-09-16T17:09:08;2.67;;;2.43;;
10246;SDS011;5168;47.854;7.944;2022-09-16T17:11:34;3.57;;;2.47;;
10246;SDS011;5168;47.854;7.944;2022-09-16T17:14:02;5.10;;;2.90;;
10246;SDS011;5168;47.854;7.944;2022-09-16T17:16:29;3.00;;;2.63;;
10246;SDS011;5168;47.854;7.944;2022-09-16T17:18:56;3.70;;;2.73;;
10246;SDS011;5168;47.854;7.944;2022-09-16T17:21:24;3.90;;;2.47;;
10246;SDS011;5168;47.854;7.944;2022-09-16T17:23:52;4.03;;;2.90;;
10246;SDS011;5168;47.854;7.944;2022-09-16T17:26:19;2.77;;;2.33;;
10246;SDS011;5168;47.854;7.944;2022-09-16T17:28:46;2.90;;;2.57;;
10246;SDS011;5168;47.854;7.944;2022-09-16T17:31:17;2.60;;;2.40;;
10246;SDS011;5168;47.854;7.944;2022-09-16T17:33:48;2.80;;;2.60;;
10246;SDS011;5168;47.854;7.944;2022-09-16T17:36:15;3.80;;;2.40;;
10246;SDS011;5168;47.854;7.944;2022-09-16T17:38:43;4.47;;;2.80;;
10246;SDS011;5168;47.854;7.944;2022-09-16T17:41:13;3.13;;;2.83;;
10246;SDS011;5168;47.854;7.944;2022-09-16T17:43:40;4.17;;;2.70;;
10246;SDS011;5168;47.854;7.944;2022-09-16T17:46:10;3.80;;;3.00;;
10246;SDS011;5168;47.854;7.944;2022-09-16T17:48:37;3.03;;;2.60;;
10246;SDS011;5168;47.854;7.944;2022-09-16T17:51:03;5.33;;;3.77;;
10246;SDS011;5168;47.854;7.944;2022-09-16T17:53:29;4.33;;;2.90;;
10246;SDS011;5168;47.854;7.944;2022-09-16T17:58:35;3.50;;;2.63;;
10246;SDS011;5168;47.854;7.944;2022-09-16T18:01:06;2.43;;;2.20;;
10246;SDS011;5168;47.854;7.944;2022-09-16T18:03:33;3.20;;;2.90;;
10246;SDS011;5168;47.854;7.944;2022-09-16T18:06:03;4.40;;;2.50;;
10246;SDS011;5168;47.854;7.944;2022-09-16T18:08:33;2.30;;;2.10;;
10246;SDS011;5168;47.854;7.944;2022-09-16T18:10:59;2.00;;;1.90;;